sensor_id;sensor_type;location;lat;lon;timestamp;P1;durP1;ratioP1;P2;durP2;ratioP2
28447;SDS011;15675;52.870;-1.416;2022-11-20T00:01:48;21.90;;;7.50;;
28447;SDS011;15675;52.870;-1.416;2022-11-20T00:04:14;19.17;;;6.82;;
28447;SDS011;15675;52.870;-1.416;2022-11-20T00:06:39;19.38;;;7.13;;
28447;SDS011;15675;52.870;-1.416;2022-11-20T00:09:05;23.88;;;7.38;;
28447;SDS011;15675;52.870;-1.416;2022-11-20T00:11:31;17.98;;;6.38;;
28447;SDS011;15675;52.870;-1.416;2022-11-20T00:13:59;24.30;;;7.13;;
28447;SDS011;15675;52.870;-1.416;2022-11-20T00:16:26;19.58;;;6.68;;
28447;SDS011;15675;52.870;-1.416;2022-11-20T00:18:53;21.92;;;6.32;;
28447;SDS011;15675;52.870;-1.416;2022-11-20T00:21:20;20.00;;;7.28;;
28447;SDS011;15675;52.870;-1.416;2022-11-20T00:23:48;17.90;;;6.53;;
28447;SDS011;15675;52.870;-1.416;2022-11-20T00:26:14;13.57;;;6.40;;
28447;SDS011;15675;52.870;-1.416;2022-11-20T00:28:42;16.33;;;6.22;;
28447;SDS011;15675;52.870;-1.416;2022-11-20T00:31:13;17.35;;;6.05;;
28447;SDS011;15675;52.870;-1.416;2022-11-20T00:33:40;19.65;;;6.07;;
28447;SDS011;15675;52.870;-1.416;2022-11-20T00:36:17;20.92;;;6.53;;
28447;SDS011;15675;52.870;-1.416;2022-11-20T00:38:44;14.63;;;7.05;;
28447;SDS011;15675;52.870;-1.416;2022-11-20T00:41:11;17.92;;;6.70;;
28447;SDS011;15675;52.870;-1.416;2022-11-20T00:43:38;20.88;;;6.38;;
28447;SDS011;15675;52.870;-1.416;2022-11-20T00:46:05;18.58;;;6.50;;
28447;SDS011;15675;52.870;-1.416;2022-11-20T00:48:37;21.30;;;6.72;;
28447;SDS011;15675;52.870;-1.416;2022-11-20T00:51:03;21.70;;;6.30;;
28447;SDS011;15675;52.870;-1.416;2022-11-20T00:53:29;20.55;;;6.45;;
28447;SDS011;15675;52.870;-1.416;2022-11-20T00:56:02;23.35;;;5.93;;
28447;SDS011;15675;52.870;-1.416;2022-11-20T00:58:34;16.65;;;6.60;;
28447;SDS011;15675;52.870;-1.416;2022-11-20T01:01:05;16.52;;;6.22;;
28447;SDS011;15675;52.870;-1.416;2022-11-20T01:03:33;17.67;;;6.38;;
28447;SDS011;15675;52.870;-1.416;2022-11-20T01:06:01;12.07;;;5.13;;
28447;SDS011;15675;52.870;-1.416;2022-11-20T01:08:32;22.58;;;6.18;;
28447;SDS011;15675;52.870;-1.416;2022-11-20T01:11:02;25.33;;;6.22;;
28447;SDS011;15675;52.870;-1.416;2022-11-20T01:13:30;18.83;;;6.18;;
28447;SDS011;15675;52.870;-1.416;2022-11-20T01:16:21;10.57;;;5.38;;
28447;SDS011;15675;52.870;-1.416;2022-11-20T01:18:51;12.07;;;5.53;;
28447;SDS011;15675;52.870;-1.416;2022-11-20T01:21:21;23.58;;;5.60;;
28447;SDS011;15675;52.870;-1.416;2022-11-20T01:23:49;15.60;;;5.15;;
28447;SDS011;15675;52.870;-1.416;2022-11-20T01:26:20;16.63;;;4.70;;
28447;SDS011;15675;52.870;-1.416;2022-11-20T01:28:48;12.93;;;5.03;;
28447;SDS011;15675;52.870;-1.416;2022-11-20T01:33:41;14.32;;;4.80;;
28447;SDS011;15675;52.870;-1.416;2022-11-20T01:36:07;19.80;;;4.90;;
28447;SDS011;15675;52.870;-1.416;2022-11-20T01:38:34;15.38;;;5.38;;
28447;SDS011;15675;52.870;-1.416;2022-11-20T01:41:00;12.82;;;4.80;;
28447;SDS011;15675;52.870;-1.416;2022-11-20T01:43:26;15.35;;;4.57;;
28447;SDS011;15675;52.870;-1.416;2022-11-20T01:49:14;12.18;;;4.55;;
28447;SDS011;15675;52.870;-1.416;2022-11-20T01:54:01;12.63;;;4.90;;
28447;SDS011;15675;52.870;-1.416;2022-11-20T01:56:30;16.63;;;5.72;;
28447;SDS011;15675;52.870;-1.416;2022-11-20T01:59:02;15.70;;;5.35;;
28447;SDS011;15675;52.870;-1.416;2022-11-20T02:01:31;19.45;;;6.07;;
28447;SDS011;15675;52.870;-1.416;2022-11-20T02:03:56;21.30;;;5.65;;
28447;SDS011;15675;52.870;-1.416;2022-11-20T02:06:25;17.92;;;5.07;;
28447;SDS011;15675;52.870;-1.416;2022-11-20T02:08:54;13.68;;;5.03;;
28447;SDS011;15675;52.870;-1.416;2022-11-20T02:11:20;14.73;;;4.28;;
28447;SDS011;15675;52.870;-1.416;2022-11-20T02:13:46;10.10;;;4.50;;
28447;SDS011;15675;52.870;-1.416;2022-11-20T02:18:46;10.73;;;4.80;;
28447;SDS011;15675;52.870;-1.416;2022-11-20T02:26:22;10.68;;;3.75;;
28447;SDS011;15675;52.870;-1.416;2022-11-20T02:28:50;17.45;;;3.85;;
28447;SDS011;15675;52.870;-1.416;2022-11-20T02:31:15;13.13;;;3.90;;
28447;SDS011;15675;52.870;-1.416;2022-11-20T02:33:41;13.45;;;3.47;;
28447;SDS011;15675;52.870;-1.416;2022-11-20T02:36:08;14.23;;;3.58;;
28447;SDS011;15675;52.870;-1.416;2022-11-20T02:38:38;10.93;;;3.58;;
28447;SDS011;15675;52.870;-1.416;2022-11-20T02:41:04;11.38;;;3.72;;
28447;SDS011;15675;52.870;-1.416;2022-11-20T02:43:29;14.27;;;3.70;;
28447;SDS011;15675;52.870;-1.416;2022-11-20T02:45:55;11.52;;;3.92;;
28447;SDS011;15675;52.870;-1.416;2022-11-20T02:48:21;15.95;;;4.07;;
28447;SDS011;15675;52.870;-1.416;2022-11-20T02:50:47;14.10;;;4.18;;
28447;SDS011;15675;52.870;-1.416;2022-11-20T02:53:12;13.40;;;3.95;;
28447;SDS011;15675;52.870;-1.416;2022-11-20T02:55:38;10.88;;;3.28;;
28447;SDS011;15675;52.870;-1.416;2022-11-20T02:58:03;14.15;;;4.40;;
28447;SDS011;15675;52.870;-1.416;2022-11-20T03:00:29;14.50;;;3.55;;
28447;SDS011;15675;52.870;-1.416;2022-11-20T03:02:54;10.90;;;4.10;;
28447;SDS011;15675;52.870;-1.416;2022-11-20T03:05:20;9.55;;;3.38;;
28447;SDS011;15675;52.870;-1.416;2022-11-20T03:07:45;8.85;;;3.53;;
28447;SDS011;15675;52.870;-1.416;2022-11-20T03:10:11;16.20;;;3.90;;
28447;SDS011;15675;52.870;-1.416;2022-11-20T03:12:37;13.18;;;3.50;;
28447;SDS011;15675;52.870;-1.416;2022-11-20T03:15:03;19.08;;;4.45;;
28447;SDS011;15675;52.870;-1.416;2022-11-20T03:17:29;9.15;;;4.20;;
28447;SDS011;15675;52.870;-1.416;2022-11-20T03:19:55;11.05;;;3.55;;
28447;SDS011;15675;52.870;-1.416;2022-11-20T03:22:21;8.75;;;4.18;;
28447;SDS011;15675;52.870;-1.416;2022-11-20T03:24:47;10.45;;;3.63;;
28447;SDS011;15675;52.870;-1.416;2022-11-20T03:27:12;10.13;;;4.15;;
28447;SDS011;15675;52.870;-1.416;2022-11-20T03:29:38;14.65;;;4.30;;
28447;SDS011;15675;52.870;-1.416;2022-11-20T03:32:03;12.27;;;3.88;;
28447;SDS011;15675;52.870;-1.416;2022-11-20T03:34:29;12.02;;;4.13;;
28447;SDS011;15675;52.870;-1.416;2022-11-20T03:36:55;12.50;;;3.83;;
28447;SDS011;15675;52.870;-1.416;2022-11-20T03:39:20;12.70;;;4.00;;
28447;SDS011;15675;52.870;-1.416;2022-11-20T03:41:46;9.82;;;3.35;;
28447;SDS011;15675;52.870;-1.416;2022-11-20T03:44:11;10.07;;;3.58;;
28447;SDS011;15675;52.870;-1.416;2022-11-20T03:46:37;10.77;;;3.20;;
28447;SDS011;15675;52.870;-1.416;2022-11-20T03:49:03;7.43;;;3.67;;
28447;SDS011;15675;52.870;-1.416;2022-11-20T03:51:33;13.85;;;4.13;;
28447;SDS011;15675;52.870;-1.416;2022-11-20T03:54:01;8.15;;;3.60;;
28447;SDS011;15675;52.870;-1.416;2022-11-20T03:56:30;14.05;;;4.10;;
28447;SDS011;15675;52.870;-1.416;2022-11-20T03:58:57;9.55;;;3.58;;
28447;SDS011;15675;52.870;-1.416;2022-11-20T04:01:24;12.75;;;4.10;;
28447;SDS011;15675;52.870;-1.416;2022-11-20T04:03:53;14.95;;;4.40;;
28447;SDS011;15675;52.870;-1.416;2022-11-20T04:06:22;8.60;;;4.28;;
28447;SDS011;15675;52.870;-1.416;2022-11-20T04:08:50;13.85;;;4.32;;
28447;SDS011;15675;52.870;-1.416;2022-11-20T04:11:17;9.35;;;4.25;;
28447;SDS011;15675;52.870;-1.416;2022-11-20T04:13:48;9.93;;;4.22;;
28447;SDS011;15675;52.870;-1.416;2022-11-20T04:16:15;9.30;;;4.70;;
28447;SDS011;15675;52.870;-1.416;2022-11-20T04:18:42;10.05;;;4.88;;
28447;SDS011;15675;52.870;-1.416;2022-11-20T04:21:09;9.15;;;4.75;;
28447;SDS011;15675;52.870;-1.416;2022-11-20T04:23:35;10.05;;;4.60;;
28447;SDS011;15675;52.870;-1.416;2022-11-20T04:26:02;6.38;;;3.83;;
28447;SDS011;15675;52.870;-1.416;2022-11-20T04:28:29;10.63;;;4.15;;
28447;SDS011;15675;52.870;-1.416;2022-11-20T04:31:01;11.05;;;4.15;;
28447;SDS011;15675;52.870;-1.416;2022-11-20T04:33:35;10.48;;;4.00;;
28447;SDS011;15675;52.870;-1.416;2022-11-20T04:36:09;5.80;;;3.60;;
28447;SDS011;15675;52.870;-1.416;2022-11-20T04:38:36;6.70;;;3.65;;
28447;SDS011;15675;52.870;-1.416;2022-11-20T04:41:04;7.65;;;3.90;;
28447;SDS011;15675;52.870;-1.416;2022-11-20T04:43:31;11.30;;;4.38;;
28447;SDS011;15675;52.870;-1.416;2022-11-20T04:46:00;8.23;;;4.78;;
28447;SDS011;15675;52.870;-1.416;2022-11-20T04:48:27;10.25;;;5.05;;
28447;SDS011;15675;52.870;-1.416;2022-11-20T04:50:54;8.60;;;5.03;;
28447;SDS011;15675;52.870;-1.416;2022-11-20T04:53:21;7.30;;;5.15;;
28447;SDS011;15675;52.870;-1.416;2022-11-20T04:55:47;8.18;;;5.85;;
28447;SDS011;15675;52.870;-1.416;2022-11-20T04:58:13;9.52;;;5.22;;
28447;SDS011;15675;52.870;-1.416;2022-11-20T05:00:39;11.20;;;5.63;;
28447;SDS011;15675;52.870;-1.416;2022-11-20T05:03:05;12.35;;;5.35;;
28447;SDS011;15675;52.870;-1.416;2022-11-20T05:05:33;9.73;;;5.88;;
28447;SDS011;15675;52.870;-1.416;2022-11-20T05:07:59;6.97;;;5.50;;
28447;SDS011;15675;52.870;-1.416;2022-11-20T05:10:25;12.57;;;6.80;;
28447;SDS011;15675;52.870;-1.416;2022-11-20T05:12:51;11.90;;;6.93;;
28447;SDS011;15675;52.870;-1.416;2022-11-20T05:15:17;11.02;;;6.78;;
28447;SDS011;15675;52.870;-1.416;2022-11-20T05:17:49;13.07;;;5.97;;
28447;SDS011;15675;52.870;-1.416;2022-11-20T05:20:15;11.63;;;6.70;;
28447;SDS011;15675;52.870;-1.416;2022-11-20T05:22:40;13.80;;;7.45;;
28447;SDS011;15675;52.870;-1.416;2022-11-20T05:25:06;9.75;;;7.18;;
28447;SDS011;15675;52.870;-1.416;2022-11-20T05:27:32;13.65;;;7.15;;
28447;SDS011;15675;52.870;-1.416;2022-11-20T05:29:58;10.38;;;6.35;;
28447;SDS011;15675;52.870;-1.416;2022-11-20T05:32:23;11.80;;;6.47;;
28447;SDS011;15675;52.870;-1.416;2022-11-20T05:34:51;9.18;;;6.35;;
28447;SDS011;15675;52.870;-1.416;2022-11-20T05:37:19;9.43;;;5.95;;
28447;SDS011;15675;52.870;-1.416;2022-11-20T05:39:45;11.02;;;6.68;;
28447;SDS011;15675;52.870;-1.416;2022-11-20T05:42:11;12.77;;;7.13;;
28447;SDS011;15675;52.870;-1.416;2022-11-20T05:44:55;9.90;;;5.97;;
28447;SDS011;15675;52.870;-1.416;2022-11-20T05:47:21;10.60;;;6.75;;
28447;SDS011;15675;52.870;-1.416;2022-11-20T05:49:46;8.32;;;6.20;;
28447;SDS011;15675;52.870;-1.416;2022-11-20T05:52:12;9.70;;;6.95;;
28447;SDS011;15675;52.870;-1.416;2022-11-20T05:54:37;10.07;;;6.65;;
28447;SDS011;15675;52.870;-1.416;2022-11-20T05:57:03;8.52;;;6.05;;
28447;SDS011;15675;52.870;-1.416;2022-11-20T05:59:29;10.57;;;6.90;;
28447;SDS011;15675;52.870;-1.416;2022-11-20T06:01:55;11.50;;;6.38;;
28447;SDS011;15675;52.870;-1.416;2022-11-20T06:04:21;9.38;;;6.82;;
28447;SDS011;15675;52.870;-1.416;2022-11-20T06:06:46;9.52;;;5.85;;
28447;SDS011;15675;52.870;-1.416;2022-11-20T06:09:12;11.90;;;6.65;;
28447;SDS011;15675;52.870;-1.416;2022-11-20T06:11:37;10.40;;;5.43;;
28447;SDS011;15675;52.870;-1.416;2022-11-20T06:14:03;9.07;;;5.60;;
28447;SDS011;15675;52.870;-1.416;2022-11-20T06:16:28;10.68;;;5.93;;
28447;SDS011;15675;52.870;-1.416;2022-11-20T06:18:54;11.90;;;6.05;;
28447;SDS011;15675;52.870;-1.416;2022-11-20T06:21:20;11.38;;;4.88;;
28447;SDS011;15675;52.870;-1.416;2022-11-20T06:23:47;8.85;;;5.60;;
28447;SDS011;15675;52.870;-1.416;2022-11-20T06:26:14;5.57;;;4.05;;
28447;SDS011;15675;52.870;-1.416;2022-11-20T06:28:42;6.55;;;4.22;;
28447;SDS011;15675;52.870;-1.416;2022-11-20T06:31:10;8.82;;;4.78;;
28447;SDS011;15675;52.870;-1.416;2022-11-20T06:33:37;7.40;;;4.68;;
28447;SDS011;15675;52.870;-1.416;2022-11-20T06:36:03;6.75;;;5.03;;
28447;SDS011;15675;52.870;-1.416;2022-11-20T06:38:29;13.75;;;5.80;;
28447;SDS011;15675;52.870;-1.416;2022-11-20T06:40:55;9.23;;;5.50;;
28447;SDS011;15675;52.870;-1.416;2022-11-20T06:43:21;9.63;;;5.90;;
28447;SDS011;15675;52.870;-1.416;2022-11-20T06:45:54;7.13;;;4.93;;
28447;SDS011;15675;52.870;-1.416;2022-11-20T06:48:23;9.38;;;5.25;;
28447;SDS011;15675;52.870;-1.416;2022-11-20T06:50:50;8.50;;;5.40;;
28447;SDS011;15675;52.870;-1.416;2022-11-20T06:53:16;8.07;;;5.30;;
28447;SDS011;15675;52.870;-1.416;2022-11-20T06:55:42;10.50;;;5.25;;
28447;SDS011;15675;52.870;-1.416;2022-11-20T06:58:09;10.23;;;5.47;;
28447;SDS011;15675;52.870;-1.416;2022-11-20T07:00:35;11.52;;;5.15;;
28447;SDS011;15675;52.870;-1.416;2022-11-20T07:03:05;9.07;;;5.80;;
28447;SDS011;15675;52.870;-1.416;2022-11-20T07:05:35;8.05;;;6.07;;
28447;SDS011;15675;52.870;-1.416;2022-11-20T07:08:01;14.70;;;6.97;;
28447;SDS011;15675;52.870;-1.416;2022-11-20T07:10:27;11.38;;;6.10;;
28447;SDS011;15675;52.870;-1.416;2022-11-20T07:12:52;12.13;;;6.28;;
28447;SDS011;15675;52.870;-1.416;2022-11-20T07:15:18;13.32;;;6.10;;
28447;SDS011;15675;52.870;-1.416;2022-11-20T07:17:45;11.93;;;6.43;;
28447;SDS011;15675;52.870;-1.416;2022-11-20T07:20:11;9.48;;;6.03;;
28447;SDS011;15675;52.870;-1.416;2022-11-20T07:22:38;12.27;;;5.95;;
28447;SDS011;15675;52.870;-1.416;2022-11-20T07:25:04;10.60;;;5.97;;
28447;SDS011;15675;52.870;-1.416;2022-11-20T07:27:30;11.48;;;5.47;;
28447;SDS011;15675;52.870;-1.416;2022-11-20T07:29:55;10.93;;;5.40;;
28447;SDS011;15675;52.870;-1.416;2022-11-20T07:32:21;13.80;;;5.90;;
28447;SDS011;15675;52.870;-1.416;2022-11-20T07:34:47;11.18;;;4.90;;
28447;SDS011;15675;52.870;-1.416;2022-11-20T07:37:13;9.32;;;5.20;;
28447;SDS011;15675;52.870;-1.416;2022-11-20T07:39:39;12.07;;;5.72;;
28447;SDS011;15675;52.870;-1.416;2022-11-20T07:42:07;11.27;;;6.15;;
28447;SDS011;15675;52.870;-1.416;2022-11-20T07:44:33;15.48;;;5.30;;
28447;SDS011;15675;52.870;-1.416;2022-11-20T07:46:59;15.02;;;5.47;;
28447;SDS011;15675;52.870;-1.416;2022-11-20T07:49:25;13.10;;;5.13;;
28447;SDS011;15675;52.870;-1.416;2022-11-20T07:51:50;11.15;;;5.25;;
28447;SDS011;15675;52.870;-1.416;2022-11-20T07:54:16;9.90;;;4.70;;
28447;SDS011;15675;52.870;-1.416;2022-11-20T07:56:42;10.05;;;4.70;;
28447;SDS011;15675;52.870;-1.416;2022-11-20T07:59:07;17.65;;;5.90;;
28447;SDS011;15675;52.870;-1.416;2022-11-20T08:01:33;16.80;;;5.03;;
28447;SDS011;15675;52.870;-1.416;2022-11-20T08:03:58;10.55;;;4.97;;
28447;SDS011;15675;52.870;-1.416;2022-11-20T08:06:24;10.85;;;5.07;;
28447;SDS011;15675;52.870;-1.416;2022-11-20T08:08:50;10.27;;;4.53;;
28447;SDS011;15675;52.870;-1.416;2022-11-20T08:11:16;11.65;;;4.85;;
28447;SDS011;15675;52.870;-1.416;2022-11-20T08:13:59;13.20;;;5.28;;
28447;SDS011;15675;52.870;-1.416;2022-11-20T08:16:47;11.48;;;6.70;;
28447;SDS011;15675;52.870;-1.416;2022-11-20T08:19:14;11.90;;;4.57;;
28447;SDS011;15675;52.870;-1.416;2022-11-20T08:21:42;12.23;;;6.47;;
28447;SDS011;15675;52.870;-1.416;2022-11-20T08:24:08;18.25;;;4.55;;
28447;SDS011;15675;52.870;-1.416;2022-11-20T08:26:35;9.73;;;4.63;;
28447;SDS011;15675;52.870;-1.416;2022-11-20T08:29:02;14.80;;;5.47;;
28447;SDS011;15675;52.870;-1.416;2022-11-20T08:31:28;16.90;;;4.45;;
28447;SDS011;15675;52.870;-1.416;2022-11-20T08:33:54;13.77;;;6.28;;
28447;SDS011;15675;52.870;-1.416;2022-11-20T08:36:20;11.90;;;5.57;;
28447;SDS011;15675;52.870;-1.416;2022-11-20T08:38:51;12.50;;;4.50;;
28447;SDS011;15675;52.870;-1.416;2022-11-20T08:41:19;10.77;;;4.55;;
28447;SDS011;15675;52.870;-1.416;2022-11-20T08:46:32;9.45;;;4.00;;
28447;SDS011;15675;52.870;-1.416;2022-11-20T08:49:00;10.05;;;4.65;;
28447;SDS011;15675;52.870;-1.416;2022-11-20T08:51:26;14.32;;;5.00;;
28447;SDS011;15675;52.870;-1.416;2022-11-20T08:53:51;8.30;;;4.40;;
28447;SDS011;15675;52.870;-1.416;2022-11-20T08:56:17;11.40;;;4.72;;
28447;SDS011;15675;52.870;-1.416;2022-11-20T08:58:43;12.73;;;4.47;;
28447;SDS011;15675;52.870;-1.416;2022-11-20T09:01:08;18.10;;;4.68;;
28447;SDS011;15675;52.870;-1.416;2022-11-20T09:03:34;14.95;;;5.07;;
28447;SDS011;15675;52.870;-1.416;2022-11-20T09:06:00;20.17;;;5.10;;
28447;SDS011;15675;52.870;-1.416;2022-11-20T09:08:27;20.42;;;8.32;;
28447;SDS011;15675;52.870;-1.416;2022-11-20T09:10:54;38.35;;;16.98;;
28447;SDS011;15675;52.870;-1.416;2022-11-20T09:13:21;21.33;;;9.55;;
28447;SDS011;15675;52.870;-1.416;2022-11-20T09:15:52;13.52;;;5.60;;
28447;SDS011;15675;52.870;-1.416;2022-11-20T09:18:18;17.58;;;6.28;;
28447;SDS011;15675;52.870;-1.416;2022-11-20T09:20:44;13.32;;;6.03;;
28447;SDS011;15675;52.870;-1.416;2022-11-20T09:23:09;16.75;;;4.90;;
28447;SDS011;15675;52.870;-1.416;2022-11-20T09:25:34;14.60;;;5.32;;
28447;SDS011;15675;52.870;-1.416;2022-11-20T09:28:00;21.10;;;4.82;;
28447;SDS011;15675;52.870;-1.416;2022-11-20T09:30:26;18.40;;;4.28;;
28447;SDS011;15675;52.870;-1.416;2022-11-20T09:32:52;20.42;;;4.32;;
28447;SDS011;15675;52.870;-1.416;2022-11-20T09:35:18;14.73;;;4.07;;
28447;SDS011;15675;52.870;-1.416;2022-11-20T09:37:43;20.45;;;4.90;;
28447;SDS011;15675;52.870;-1.416;2022-11-20T09:40:17;15.70;;;3.75;;
28447;SDS011;15675;52.870;-1.416;2022-11-20T09:45:37;17.92;;;3.33;;
28447;SDS011;15675;52.870;-1.416;2022-11-20T09:48:32;20.15;;;4.57;;
28447;SDS011;15675;52.870;-1.416;2022-11-20T09:56:31;14.70;;;3.33;;
28447;SDS011;15675;52.870;-1.416;2022-11-20T09:58:59;17.88;;;3.15;;
28447;SDS011;15675;52.870;-1.416;2022-11-20T10:01:30;20.30;;;3.40;;
28447;SDS011;15675;52.870;-1.416;2022-11-20T10:04:12;27.05;;;4.40;;
28447;SDS011;15675;52.870;-1.416;2022-11-20T10:07:07;18.50;;;3.08;;
28447;SDS011;15675;52.870;-1.416;2022-11-20T10:10:03;24.70;;;3.08;;
28447;SDS011;15675;52.870;-1.416;2022-11-20T10:23:27;9.98;;;2.70;;
28447;SDS011;15675;52.870;-1.416;2022-11-20T10:29:10;10.15;;;2.53;;
28447;SDS011;15675;52.870;-1.416;2022-11-20T10:31:38;11.60;;;2.75;;
28447;SDS011;15675;52.870;-1.416;2022-11-20T10:34:07;18.33;;;2.95;;
28447;SDS011;15675;52.870;-1.416;2022-11-20T10:36:44;24.80;;;3.10;;
28447;SDS011;15675;52.870;-1.416;2022-11-20T10:39:22;21.85;;;3.42;;
28447;SDS011;15675;52.870;-1.416;2022-11-20T10:41:50;15.48;;;3.47;;
28447;SDS011;15675;52.870;-1.416;2022-11-20T10:44:19;18.02;;;3.03;;
28447;SDS011;15675;52.870;-1.416;2022-11-20T10:47:11;24.92;;;4.43;;
28447;SDS011;15675;52.870;-1.416;2022-11-20T10:49:39;21.48;;;3.03;;
28447;SDS011;15675;52.870;-1.416;2022-11-20T10:54:47;23.52;;;4.07;;
28447;SDS011;15675;52.870;-1.416;2022-11-20T11:00:05;21.10;;;3.20;;
28447;SDS011;15675;52.870;-1.416;2022-11-20T11:07:55;25.95;;;5.03;;
28447;SDS011;15675;52.870;-1.416;2022-11-20T11:13:30;26.55;;;3.60;;
28447;SDS011;15675;52.870;-1.416;2022-11-20T11:15:56;24.05;;;3.90;;
28447;SDS011;15675;52.870;-1.416;2022-11-20T11:18:29;22.83;;;4.32;;
28447;SDS011;15675;52.870;-1.416;2022-11-20T11:20:57;24.27;;;3.92;;
28447;SDS011;15675;52.870;-1.416;2022-11-20T11:23:45;32.78;;;3.88;;
28447;SDS011;15675;52.870;-1.416;2022-11-20T11:26:21;24.85;;;5.32;;
28447;SDS011;15675;52.870;-1.416;2022-11-20T11:28:58;18.90;;;3.70;;
28447;SDS011;15675;52.870;-1.416;2022-11-20T11:31:32;23.23;;;3.10;;
28447;SDS011;15675;52.870;-1.416;2022-11-20T11:34:12;28.35;;;3.65;;
28447;SDS011;15675;52.870;-1.416;2022-11-20T11:36:39;17.83;;;3.50;;
28447;SDS011;15675;52.870;-1.416;2022-11-20T11:39:06;21.77;;;4.40;;
28447;SDS011;15675;52.870;-1.416;2022-11-20T11:41:39;16.50;;;3.67;;
28447;SDS011;15675;52.870;-1.416;2022-11-20T11:50:15;19.88;;;3.67;;
28447;SDS011;15675;52.870;-1.416;2022-11-20T11:52:44;24.98;;;3.75;;
28447;SDS011;15675;52.870;-1.416;2022-11-20T11:55:15;21.23;;;4.20;;
28447;SDS011;15675;52.870;-1.416;2022-11-20T11:57:52;23.23;;;3.28;;
28447;SDS011;15675;52.870;-1.416;2022-11-20T12:00:24;16.90;;;3.03;;
28447;SDS011;15675;52.870;-1.416;2022-11-20T12:02:59;18.88;;;2.75;;
28447;SDS011;15675;52.870;-1.416;2022-11-20T12:05:38;15.15;;;3.05;;
28447;SDS011;15675;52.870;-1.416;2022-11-20T12:08:25;24.58;;;4.05;;
28447;SDS011;15675;52.870;-1.416;2022-11-20T12:11:04;27.63;;;3.20;;
28447;SDS011;15675;52.870;-1.416;2022-11-20T12:13:54;21.80;;;3.08;;
28447;SDS011;15675;52.870;-1.416;2022-11-20T12:16:27;17.13;;;3.28;;
28447;SDS011;15675;52.870;-1.416;2022-11-20T12:18:53;26.00;;;3.53;;
28447;SDS011;15675;52.870;-1.416;2022-11-20T12:21:20;25.90;;;3.03;;
28447;SDS011;15675;52.870;-1.416;2022-11-20T12:27:05;23.13;;;3.53;;
28447;SDS011;15675;52.870;-1.416;2022-11-20T12:29:53;15.75;;;2.97;;
28447;SDS011;15675;52.870;-1.416;2022-11-20T12:38:25;18.00;;;2.80;;
28447;SDS011;15675;52.870;-1.416;2022-11-20T12:47:17;21.63;;;3.47;;
28447;SDS011;15675;52.870;-1.416;2022-11-20T12:53:00;18.83;;;2.97;;
28447;SDS011;15675;52.870;-1.416;2022-11-20T12:55:49;13.95;;;3.03;;
28447;SDS011;15675;52.870;-1.416;2022-11-20T13:06:48;11.82;;;3.22;;
28447;SDS011;15675;52.870;-1.416;2022-11-20T13:09:15;21.77;;;4.18;;
28447;SDS011;15675;52.870;-1.416;2022-11-20T13:11:47;20.88;;;3.20;;
28447;SDS011;15675;52.870;-1.416;2022-11-20T13:16:59;17.30;;;3.95;;
28447;SDS011;15675;52.870;-1.416;2022-11-20T13:19:30;11.77;;;2.40;;
28447;SDS011;15675;52.870;-1.416;2022-11-20T13:21:57;19.55;;;3.15;;
28447;SDS011;15675;52.870;-1.416;2022-11-20T13:24:23;24.63;;;3.20;;
28447;SDS011;15675;52.870;-1.416;2022-11-20T13:29:40;18.75;;;2.92;;
28447;SDS011;15675;52.870;-1.416;2022-11-20T13:32:13;20.58;;;3.58;;
28447;SDS011;15675;52.870;-1.416;2022-11-20T13:34:56;14.50;;;2.55;;
28447;SDS011;15675;52.870;-1.416;2022-11-20T13:42:38;17.90;;;3.05;;
28447;SDS011;15675;52.870;-1.416;2022-11-20T13:45:09;21.75;;;4.90;;
28447;SDS011;15675;52.870;-1.416;2022-11-20T13:47:49;22.05;;;2.88;;
28447;SDS011;15675;52.870;-1.416;2022-11-20T13:50:16;18.10;;;3.38;;
28447;SDS011;15675;52.870;-1.416;2022-11-20T13:55:26;16.65;;;4.53;;
28447;SDS011;15675;52.870;-1.416;2022-11-20T14:01:16;19.20;;;2.63;;
28447;SDS011;15675;52.870;-1.416;2022-11-20T14:03:45;13.80;;;2.80;;
28447;SDS011;15675;52.870;-1.416;2022-11-20T14:06:25;20.63;;;3.05;;
28447;SDS011;15675;52.870;-1.416;2022-11-20T14:08:53;12.25;;;2.70;;
28447;SDS011;15675;52.870;-1.416;2022-11-20T14:11:20;15.40;;;3.05;;
28447;SDS011;15675;52.870;-1.416;2022-11-20T14:14:02;18.27;;;3.08;;
28447;SDS011;15675;52.870;-1.416;2022-11-20T14:16:34;19.98;;;2.58;;
28447;SDS011;15675;52.870;-1.416;2022-11-20T14:24:11;12.60;;;1.98;;
28447;SDS011;15675;52.870;-1.416;2022-11-20T14:26:38;14.73;;;2.85;;
28447;SDS011;15675;52.870;-1.416;2022-11-20T14:29:12;15.85;;;2.47;;
28447;SDS011;15675;52.870;-1.416;2022-11-20T14:31:39;13.10;;;2.70;;
28447;SDS011;15675;52.870;-1.416;2022-11-20T14:34:26;18.40;;;2.60;;
28447;SDS011;15675;52.870;-1.416;2022-11-20T14:36:58;23.55;;;3.75;;
28447;SDS011;15675;52.870;-1.416;2022-11-20T14:41:54;15.25;;;2.63;;
28447;SDS011;15675;52.870;-1.416;2022-11-20T14:44:20;14.02;;;2.65;;
28447;SDS011;15675;52.870;-1.416;2022-11-20T14:46:49;13.32;;;2.75;;
28447;SDS011;15675;52.870;-1.416;2022-11-20T14:49:16;17.90;;;2.83;;
28447;SDS011;15675;52.870;-1.416;2022-11-20T14:51:42;16.15;;;2.95;;
28447;SDS011;15675;52.870;-1.416;2022-11-20T14:54:17;20.05;;;2.88;;
28447;SDS011;15675;52.870;-1.416;2022-11-20T14:56:53;7.03;;;1.60;;
28447;SDS011;15675;52.870;-1.416;2022-11-20T14:59:27;14.90;;;2.47;;
28447;SDS011;15675;52.870;-1.416;2022-11-20T15:02:01;10.18;;;2.13;;
28447;SDS011;15675;52.870;-1.416;2022-11-20T15:04:47;6.78;;;1.63;;
28447;SDS011;15675;52.870;-1.416;2022-11-20T15:07:23;11.70;;;1.40;;
28447;SDS011;15675;52.870;-1.416;2022-11-20T15:10:09;9.35;;;1.33;;
28447;SDS011;15675;52.870;-1.416;2022-11-20T15:12:38;8.25;;;1.52;;
28447;SDS011;15675;52.870;-1.416;2022-11-20T15:15:12;6.53;;;1.42;;
28447;SDS011;15675;52.870;-1.416;2022-11-20T15:17:46;11.35;;;1.80;;
28447;SDS011;15675;52.870;-1.416;2022-11-20T15:20:13;14.10;;;2.28;;
28447;SDS011;15675;52.870;-1.416;2022-11-20T15:22:41;12.98;;;2.05;;
28447;SDS011;15675;52.870;-1.416;2022-11-20T15:25:16;9.02;;;2.00;;
28447;SDS011;15675;52.870;-1.416;2022-11-20T15:27:43;8.80;;;1.92;;
28447;SDS011;15675;52.870;-1.416;2022-11-20T15:30:14;8.73;;;2.33;;
28447;SDS011;15675;52.870;-1.416;2022-11-20T15:32:42;9.48;;;1.70;;
28447;SDS011;15675;52.870;-1.416;2022-11-20T15:35:08;15.88;;;2.15;;
28447;SDS011;15675;52.870;-1.416;2022-11-20T15:37:35;9.77;;;1.70;;
28447;SDS011;15675;52.870;-1.416;2022-11-20T15:40:01;12.57;;;1.77;;
28447;SDS011;15675;52.870;-1.416;2022-11-20T15:42:27;10.77;;;1.95;;
28447;SDS011;15675;52.870;-1.416;2022-11-20T15:44:52;10.27;;;1.77;;
28447;SDS011;15675;52.870;-1.416;2022-11-20T15:47:18;11.95;;;1.63;;
28447;SDS011;15675;52.870;-1.416;2022-11-20T15:49:46;9.65;;;2.08;;
28447;SDS011;15675;52.870;-1.416;2022-11-20T15:52:12;8.82;;;1.95;;
28447;SDS011;15675;52.870;-1.416;2022-11-20T15:54:38;4.55;;;1.50;;
28447;SDS011;15675;52.870;-1.416;2022-11-20T15:57:04;9.15;;;1.45;;
28447;SDS011;15675;52.870;-1.416;2022-11-20T15:59:29;7.68;;;1.80;;
28447;SDS011;15675;52.870;-1.416;2022-11-20T16:01:55;7.18;;;1.52;;
28447;SDS011;15675;52.870;-1.416;2022-11-20T16:04:20;13.27;;;2.05;;
28447;SDS011;15675;52.870;-1.416;2022-11-20T16:06:46;8.85;;;2.00;;
28447;SDS011;15675;52.870;-1.416;2022-11-20T16:09:11;7.30;;;1.48;;
28447;SDS011;15675;52.870;-1.416;2022-11-20T16:11:37;6.55;;;2.05;;
28447;SDS011;15675;52.870;-1.416;2022-11-20T16:14:03;6.88;;;1.42;;
28447;SDS011;15675;52.870;-1.416;2022-11-20T16:16:48;4.50;;;1.10;;
28447;SDS011;15675;52.870;-1.416;2022-11-20T16:19:14;6.47;;;1.08;;
28447;SDS011;15675;52.870;-1.416;2022-11-20T16:21:40;2.38;;;1.08;;
28447;SDS011;15675;52.870;-1.416;2022-11-20T16:24:07;3.60;;;1.13;;
28447;SDS011;15675;52.870;-1.416;2022-11-20T16:26:35;4.38;;;1.25;;